createdAt,value
2023-05-04T00:01:49.567Z,14.32
2023-05-04T00:03:51.583Z,15.40
2023-05-04T00:05:53.260Z,15.85
2023-05-04T00:07:54.910Z,16.20
2023-05-04T00:09:56.505Z,16.05
2023-05-04T00:11:58.054Z,16.40
2023-05-04T00:13:59.736Z,16.08
2023-05-04T00:16:01.587Z,15.88
2023-05-04T00:18:03.253Z,16.23
2023-05-04T00:20:05.591Z,15.40
2023-05-04T00:22:07.931Z,15.45
2023-05-04T00:24:09.520Z,14.40
2023-05-04T00:26:11.204Z,16.08
2023-05-04T00:28:12.962Z,17.05
2023-05-04T00:30:15.329Z,15.90
2023-05-04T00:32:16.942Z,16.85
2023-05-04T00:34:18.655Z,15.63
2023-05-04T00:36:20.244Z,16.35
2023-05-04T00:38:21.838Z,15.02
2023-05-04T00:40:23.619Z,15.65
2023-05-04T00:42:25.222Z,15.45
2023-05-04T00:44:27.527Z,15.93
2023-05-04T00:46:29.329Z,15.98
2023-05-04T00:48:31.299Z,15.18
2023-05-04T00:50:32.955Z,16.52
2023-05-04T00:52:34.770Z,15.90
2023-05-04T00:54:36.403Z,16.27
2023-05-04T00:56:42.296Z,16.30
2023-05-04T00:58:43.986Z,15.88
2023-05-04T01:00:45.590Z,17.15
2023-05-04T01:02:47.286Z,17.30
2023-05-04T01:04:49.101Z,17.92
2023-05-04T01:07:27.681Z,17.35
2023-05-04T01:09:38.171Z,16.48
2023-05-04T01:11:49.800Z,17.88
2023-05-04T01:13:51.450Z,18.25
2023-05-04T01:15:53.212Z,18.13
2023-05-04T01:17:54.862Z,17.23
2023-05-04T01:19:56.549Z,19.00
2023-05-04T01:21:58.556Z,18.25
2023-05-04T01:24:00.302Z,18.38
2023-05-04T01:26:21.546Z,18.60
2023-05-04T01:28:45.961Z,18.52
2023-05-04T01:30:50.851Z,19.08
2023-05-04T01:32:53.107Z,19.33
2023-05-04T01:34:54.849Z,18.63
2023-05-04T01:36:56.892Z,18.77
2023-05-04T01:38:59.681Z,19.40
2023-05-04T01:41:01.227Z,17.90
2023-05-04T01:43:02.818Z,18.80
2023-05-04T01:45:04.791Z,18.40
2023-05-04T01:47:06.565Z,17.83
2023-05-04T01:49:08.185Z,18.17
2023-05-04T01:51:09.773Z,17.83
2023-05-04T01:53:11.422Z,17.95
2023-05-04T01:55:13.038Z,18.52
2023-05-04T01:57:14.634Z,18.65
2023-05-04T01:59:16.246Z,18.25
2023-05-04T02:01:17.871Z,18.63
2023-05-04T02:03:19.564Z,19.13
2023-05-04T02:05:21.165Z,18.55
2023-05-04T02:07:22.782Z,18.42
2023-05-04T02:09:24.374Z,17.85
2023-05-04T02:11:26.111Z,17.58
2023-05-04T02:13:27.747Z,16.95
2023-05-04T02:15:29.420Z,16.50
2023-05-04T02:17:31.564Z,17.00
2023-05-04T02:19:33.206Z,15.75
2023-05-04T02:21:35.343Z,16.83
2023-05-04T02:23:36.965Z,16.35
2023-05-04T02:25:42.021Z,15.60
2023-05-04T02:27:43.576Z,15.23
2023-05-04T02:29:45.224Z,15.85
2023-05-04T02:31:46.927Z,15.13
2023-05-04T02:33:50.770Z,14.07
2023-05-04T02:37:53.781Z,14.38
2023-05-04T02:39:55.326Z,14.32
2023-05-04T02:41:57.029Z,14.43
2023-05-04T02:43:58.608Z,14.32
2023-05-04T02:46:00.412Z,13.40
2023-05-04T02:48:02.470Z,13.82
2023-05-04T02:50:04.701Z,13.20
2023-05-04T02:52:06.594Z,13.77
2023-05-04T02:54:08.501Z,13.02
2023-05-04T02:56:10.075Z,12.40
2023-05-04T02:58:11.589Z,12.02
2023-05-04T03:00:13.872Z,11.23
2023-05-04T03:02:15.475Z,11.25
2023-05-04T03:04:17.094Z,10.27
2023-05-04T03:06:18.770Z,9.55
2023-05-04T03:08:20.360Z,10.13
2023-05-04T03:10:22.012Z,10.05
2023-05-04T03:12:24.671Z,10.90
2023-05-04T03:14:26.441Z,10.43
2023-05-04T03:16:28.083Z,9.40
2023-05-04T03:20:49.057Z,10.38
2023-05-04T03:22:51.254Z,10.23
2023-05-04T03:24:52.845Z,9.73
2023-05-04T03:26:54.808Z,9.88
2023-05-04T03:28:56.574Z,9.90
2023-05-04T03:30:58.120Z,9.43
2023-05-04T03:33:00.037Z,9.88
2023-05-04T03:35:03.911Z,10.05
2023-05-04T03:37:05.722Z,8.90
2023-05-04T03:39:07.928Z,8.75
2023-05-04T03:41:10.761Z,8.60
2023-05-04T03:43:12.428Z,8.55
2023-05-04T03:45:14.031Z,8.63
2023-05-04T03:47:15.778Z,8.13
2023-05-04T03:49:17.351Z,8.40
2023-05-04T03:51:19.048Z,8.43
2023-05-04T03:53:20.676Z,8.77
2023-05-04T03:55:22.386Z,9.57
2023-05-04T03:57:24.341Z,9.77
2023-05-04T03:59:25.978Z,8.95
2023-05-04T04:01:27.607Z,9.23
2023-05-04T04:03:29.707Z,10.27
2023-05-04T04:05:31.363Z,10.73
2023-05-04T04:07:33.300Z,10.40
2023-05-04T04:09:34.915Z,10.10
2023-05-04T04:11:36.497Z,9.48
2023-05-04T04:13:38.140Z,10.07
2023-05-04T04:15:40.946Z,10.02
2023-05-04T04:19:45.295Z,9.98
2023-05-04T04:21:46.835Z,9.88
2023-05-04T04:23:48.445Z,10.38
2023-05-04T04:25:50.026Z,9.52
2023-05-04T04:27:51.692Z,10.25
2023-05-04T04:29:53.242Z,10.13
2023-05-04T04:31:55.062Z,10.40
2023-05-04T04:33:56.776Z,10.57
2023-05-04T04:35:58.435Z,10.27
2023-05-04T04:38:02.221Z,10.02
2023-05-04T04:40:07.491Z,9.60
2023-05-04T04:42:09.126Z,9.55
2023-05-04T04:44:11.682Z,10.18
2023-05-04T04:46:13.416Z,10.52
2023-05-04T04:48:15.369Z,10.07
2023-05-04T04:50:17.600Z,9.75
2023-05-04T04:52:19.157Z,9.38
2023-05-04T04:54:20.781Z,9.68
2023-05-04T04:56:22.595Z,10.52
2023-05-04T04:58:24.197Z,10.63
2023-05-04T05:00:26.290Z,10.02
2023-05-04T05:02:28.570Z,9.65
2023-05-04T05:04:30.326Z,10.40
2023-05-04T05:06:31.937Z,10.27
2023-05-04T05:08:33.948Z,10.52
2023-05-04T05:10:36.103Z,10.60
2023-05-04T05:12:38.136Z,10.48
2023-05-04T05:14:39.753Z,10.02
2023-05-04T05:16:41.377Z,10.50
2023-05-04T05:18:43.109Z,10.98
2023-05-04T05:20:44.702Z,10.98
2023-05-04T05:22:46.382Z,11.82
2023-05-04T05:24:48.005Z,10.75
2023-05-04T05:26:49.553Z,11.45
2023-05-04T05:28:51.555Z,11.27
2023-05-04T05:30:53.227Z,11.98
2023-05-04T05:32:54.929Z,11.25
2023-05-04T05:34:56.844Z,11.35
2023-05-04T05:36:58.432Z,10.70
2023-05-04T05:39:00.133Z,11.00
2023-05-04T05:41:01.910Z,10.98
2023-05-04T05:43:05.597Z,10.98
2023-05-04T05:45:08.104Z,10.48
2023-05-04T05:47:09.707Z,10.95
2023-05-04T05:49:11.509Z,10.73
2023-05-04T05:51:13.144Z,10.52
2023-05-04T05:53:14.741Z,9.60
2023-05-04T05:55:16.303Z,10.27
2023-05-04T05:57:17.999Z,10.32
2023-05-04T05:59:19.587Z,9.60
2023-05-04T06:01:21.174Z,10.55
2023-05-04T06:03:23.085Z,10.13
2023-05-04T06:05:24.763Z,9.77
2023-05-04T06:07:26.545Z,9.43
2023-05-04T06:09:28.168Z,9.73
2023-05-04T06:11:29.814Z,8.80
2023-05-04T06:13:31.419Z,8.70
2023-05-04T06:15:33.093Z,8.70
2023-05-04T06:17:34.924Z,8.30
2023-05-04T06:19:39.469Z,8.52
2023-05-04T06:21:41.163Z,8.02
2023-05-04T06:23:42.765Z,8.10
2023-05-04T06:25:44.389Z,8.05
2023-05-04T06:27:46.086Z,7.53
2023-05-04T06:29:47.721Z,7.57
2023-05-04T06:31:49.508Z,8.38
2023-05-04T06:33:51.268Z,6.53
2023-05-04T06:35:53.458Z,7.05
2023-05-04T06:37:54.995Z,6.45
2023-05-04T06:39:56.662Z,7.40
2023-05-04T06:41:58.435Z,6.15
2023-05-04T06:44:00.585Z,6.20
2023-05-04T06:46:05.634Z,6.03
2023-05-04T06:48:08.859Z,6.13
2023-05-04T06:50:11.865Z,6.53
2023-05-04T06:52:14.486Z,6.60
2023-05-04T06:54:16.120Z,5.05
2023-05-04T06:56:17.652Z,5.93
2023-05-04T06:58:20.137Z,6.32
2023-05-04T07:00:22.674Z,5.60
2023-05-04T07:02:24.424Z,5.32
2023-05-04T07:04:26.129Z,5.35
2023-05-04T07:06:28.698Z,5.70
2023-05-04T07:08:30.307Z,5.85
2023-05-04T07:10:32.786Z,5.72
2023-05-04T07:12:34.466Z,5.47
2023-05-04T07:14:36.164Z,6.07
2023-05-04T07:16:38.014Z,6.30
2023-05-04T07:18:40.651Z,6.40
2023-05-04T07:20:42.856Z,6.20
2023-05-04T07:22:44.519Z,6.05
2023-05-04T07:24:46.815Z,6.32
2023-05-04T07:26:48.409Z,6.35
2023-05-04T07:28:50.046Z,6.20
2023-05-04T07:30:51.579Z,6.32
2023-05-04T07:32:53.345Z,6.40
2023-05-04T07:34:55.010Z,6.93
2023-05-04T07:36:56.748Z,7.53
2023-05-04T07:38:58.278Z,6.65
2023-05-04T07:41:00.016Z,6.55
2023-05-04T07:43:01.635Z,6.68
2023-05-04T07:45:03.929Z,6.97
2023-05-04T07:47:05.756Z,6.68
2023-05-04T07:49:07.390Z,7.03
2023-05-04T07:51:13.671Z,6.78
2023-05-04T07:53:15.204Z,7.22
2023-05-04T07:55:16.831Z,6.72
2023-05-04T07:57:18.429Z,7.72
2023-05-04T07:59:20.399Z,7.47
2023-05-04T08:01:21.998Z,7.20
2023-05-04T08:03:23.758Z,7.50
2023-05-04T08:05:25.440Z,7.22
2023-05-04T08:07:27.044Z,7.53
2023-05-04T08:09:28.632Z,7.47
2023-05-04T08:11:30.364Z,7.63
2023-05-04T08:13:31.953Z,7.28
2023-05-04T08:15:33.729Z,8.18
2023-05-04T08:17:35.557Z,7.40
2023-05-04T08:19:37.185Z,8.65
2023-05-04T08:21:40.441Z,7.45
2023-05-04T08:23:42.333Z,6.85
2023-05-04T08:25:43.966Z,7.68
2023-05-04T08:27:45.971Z,7.20
2023-05-04T08:29:47.569Z,8.45
2023-05-04T08:31:49.533Z,8.13
2023-05-04T08:33:51.493Z,8.45
2023-05-04T08:35:53.121Z,8.50
2023-05-04T08:37:55.064Z,7.60
2023-05-04T08:39:56.901Z,7.95
2023-05-04T08:41:58.581Z,7.50
2023-05-04T08:44:00.221Z,24.58
2023-05-04T08:46:01.998Z,47.03
2023-05-04T08:48:04.097Z,9.32
2023-05-04T08:50:07.554Z,8.77
2023-05-04T08:52:10.250Z,7.72
2023-05-04T08:54:12.192Z,7.43
2023-05-04T08:56:14.515Z,7.22
2023-05-04T08:58:17.884Z,7.50
2023-05-04T09:00:20.271Z,8.23
2023-05-04T09:02:23.638Z,7.68
2023-05-04T09:04:29.282Z,7.60
2023-05-04T09:06:31.765Z,7.10
2023-05-04T09:08:33.430Z,7.25
2023-05-04T09:10:35.023Z,7.47
2023-05-04T09:12:38.021Z,8.05
2023-05-04T09:14:41.404Z,6.97
2023-05-04T09:16:43.050Z,5.95
2023-05-04T09:18:45.126Z,6.10
2023-05-04T09:20:48.006Z,7.00
2023-05-04T09:23:01.008Z,8.00
2023-05-04T09:25:13.059Z,7.18
2023-05-04T09:27:18.636Z,7.45
2023-05-04T09:29:22.148Z,7.47
2023-05-04T09:31:24.177Z,6.72
2023-05-04T09:33:27.356Z,6.75
2023-05-04T09:35:33.541Z,7.30
2023-05-04T09:37:44.181Z,6.93
2023-05-04T09:39:57.580Z,6.82
2023-05-04T09:41:59.169Z,7.07
2023-05-04T09:44:00.769Z,7.35
2023-05-04T09:46:02.932Z,7.78
2023-05-04T09:48:16.600Z,7.70
2023-05-04T09:50:22.519Z,7.85
2023-05-04T09:52:24.345Z,9.13
2023-05-04T09:54:26.750Z,8.52
2023-05-04T09:56:42.127Z,8.63
2023-05-04T09:58:44.638Z,9.35
2023-05-04T10:00:46.661Z,11.88
2023-05-04T10:02:50.255Z,10.20
2023-05-04T10:04:52.302Z,10.40
2023-05-04T10:06:55.071Z,9.38
2023-05-04T10:08:59.169Z,9.95
2023-05-04T10:11:01.036Z,9.30
2023-05-04T10:13:02.634Z,10.20
2023-05-04T10:15:07.904Z,9.07
2023-05-04T10:17:18.442Z,10.40
2023-05-04T10:19:41.026Z,10.43
2023-05-04T10:21:55.813Z,10.45
2023-05-04T10:24:23.314Z,11.05
2023-05-04T10:26:33.656Z,11.40
2023-05-04T10:28:41.087Z,9.88
2023-05-04T10:30:43.016Z,9.73
2023-05-04T10:32:44.887Z,9.50
2023-05-04T10:34:46.863Z,10.90
2023-05-04T10:36:48.792Z,10.32
2023-05-04T10:38:50.380Z,10.18
2023-05-04T10:40:53.802Z,10.23
2023-05-04T10:42:55.404Z,10.02
2023-05-04T10:44:57.583Z,11.05
2023-05-04T10:47:04.289Z,10.60
2023-05-04T10:49:16.208Z,11.57
2023-05-04T10:51:26.570Z,11.07
2023-05-04T10:55:43.604Z,10.43
2023-05-04T10:57:51.116Z,10.13
2023-05-04T10:59:59.892Z,10.30
2023-05-04T11:02:02.397Z,11.65
2023-05-04T11:04:04.077Z,13.93
2023-05-04T11:06:19.547Z,11.43
2023-05-04T11:08:24.521Z,10.68
2023-05-04T11:10:26.635Z,11.48
2023-05-04T11:12:28.554Z,11.57
2023-05-04T11:14:30.392Z,12.02
2023-05-04T11:16:31.995Z,11.90
2023-05-04T11:18:35.328Z,12.40
2023-05-04T11:20:36.996Z,12.02
2023-05-04T11:22:38.620Z,12.50
2023-05-04T11:24:45.983Z,13.05
2023-05-04T11:26:49.425Z,11.30
2023-05-04T11:28:51.474Z,11.57
2023-05-04T11:30:56.010Z,10.82
2023-05-04T11:33:00.353Z,11.18
2023-05-04T11:35:04.408Z,12.32
2023-05-04T11:37:06.566Z,13.40
2023-05-04T11:39:08.371Z,13.50
2023-05-04T11:41:10.084Z,12.63
2023-05-04T11:43:12.784Z,13.75
2023-05-04T11:45:18.599Z,13.60
2023-05-04T11:47:20.708Z,13.50
2023-05-04T11:49:22.513Z,14.38
2023-05-04T11:51:29.993Z,14.20
2023-05-04T11:53:38.761Z,14.15
2023-05-04T11:55:41.341Z,13.85
2023-05-04T11:57:42.948Z,14.23
2023-05-04T11:59:50.849Z,14.82
2023-05-04T12:01:52.442Z,13.50
2023-05-04T12:03:55.000Z,13.82
2023-05-04T12:05:57.413Z,14.98
2023-05-04T12:07:59.400Z,13.48
2023-05-04T12:10:01.049Z,14.05
2023-05-04T12:12:02.643Z,14.38
2023-05-04T12:14:11.949Z,12.85
2023-05-04T12:16:15.478Z,13.82
2023-05-04T12:18:29.360Z,13.38
2023-05-04T12:20:31.301Z,14.10
2023-05-04T12:22:33.639Z,13.07
2023-05-04T12:24:35.643Z,14.13
2023-05-04T12:26:37.773Z,13.80
2023-05-04T12:28:41.085Z,15.55
2023-05-04T12:30:42.688Z,15.45
2023-05-04T12:32:44.650Z,15.20
2023-05-04T12:34:46.304Z,13.82
2023-05-04T12:36:52.049Z,13.63
2023-05-04T12:38:53.848Z,15.23
2023-05-04T12:40:58.861Z,14.27
2023-05-04T12:43:00.476Z,14.95
2023-05-04T12:45:02.067Z,14.43
2023-05-04T12:47:04.111Z,13.70
2023-05-04T12:49:06.385Z,13.63
2023-05-04T12:51:07.974Z,13.35
2023-05-04T12:53:09.648Z,13.07
2023-05-04T12:55:11.251Z,14.23
2023-05-04T12:57:13.020Z,12.88
2023-05-04T12:59:14.582Z,12.88
2023-05-04T13:01:16.938Z,12.80
2023-05-04T13:03:18.740Z,13.90
2023-05-04T13:05:22.795Z,13.05
2023-05-04T13:07:24.366Z,14.07
2023-05-04T13:09:25.975Z,14.18
2023-05-04T13:11:27.572Z,14.68
2023-05-04T13:13:29.899Z,14.63
2023-05-04T13:15:33.069Z,14.27
2023-05-04T13:17:34.852Z,6.60
2023-05-04T13:19:36.909Z,6.88
2023-05-04T13:21:38.478Z,5.55
2023-05-04T13:23:40.131Z,6.20
2023-05-04T13:25:42.226Z,6.38
2023-05-04T13:27:43.802Z,6.55
2023-05-04T13:29:45.391Z,7.07
2023-05-04T13:31:47.176Z,7.22
2023-05-04T13:33:50.550Z,6.35
2023-05-04T13:35:52.240Z,7.10
2023-05-04T13:37:53.990Z,6.72
2023-05-04T13:39:56.400Z,6.32
2023-05-04T13:41:57.963Z,6.20
2023-05-04T13:43:59.507Z,5.95
2023-05-04T13:46:04.472Z,5.50
2023-05-04T13:48:06.174Z,7.07
2023-05-04T13:50:08.374Z,6.90
2023-05-04T13:52:10.298Z,6.18
2023-05-04T13:54:11.903Z,6.47
2023-05-04T13:56:13.467Z,6.68
2023-05-04T13:58:15.084Z,6.82
2023-05-04T14:00:17.949Z,6.68
2023-05-04T14:02:20.193Z,7.07
2023-05-04T14:04:22.716Z,7.22
2023-05-04T14:06:26.062Z,6.85
2023-05-04T14:08:27.632Z,6.80
2023-05-04T14:10:29.204Z,7.13
2023-05-04T14:12:30.822Z,6.97
2023-05-04T14:14:32.497Z,7.10
2023-05-04T14:16:36.143Z,6.90
2023-05-04T14:18:39.007Z,7.22
2023-05-04T14:20:40.681Z,7.18
2023-05-04T14:22:42.352Z,6.22
2023-05-04T14:24:43.962Z,7.00
2023-05-04T14:26:45.907Z,7.22
2023-05-04T14:28:48.319Z,7.22
2023-05-04T14:30:50.486Z,6.97
2023-05-04T14:32:58.290Z,7.13
2023-05-04T14:35:06.596Z,7.32
2023-05-04T14:37:08.476Z,7.75
2023-05-04T14:39:10.038Z,7.32
2023-05-04T14:41:13.704Z,6.45
2023-05-04T14:43:15.266Z,6.65
2023-05-04T14:45:17.338Z,6.60
2023-05-04T14:47:19.897Z,6.32
2023-05-04T14:49:35.808Z,6.50
2023-05-04T14:51:39.246Z,6.38
2023-05-04T14:53:41.130Z,6.85
2023-05-04T14:55:42.790Z,6.30
2023-05-04T14:57:44.334Z,5.15
2023-05-04T14:59:46.155Z,5.10
2023-05-04T15:01:47.833Z,4.68
2023-05-04T15:03:49.856Z,4.63
2023-05-04T15:05:51.553Z,4.18
2023-05-04T15:07:53.119Z,4.25
2023-05-04T15:09:54.732Z,4.05
2023-05-04T15:11:56.614Z,4.03
2023-05-04T15:13:59.071Z,3.92
2023-05-04T15:16:00.781Z,3.92
2023-05-04T15:18:02.435Z,3.53
2023-05-04T15:20:05.449Z,4.03
2023-05-04T15:22:07.593Z,3.70
2023-05-04T15:24:09.192Z,3.80
2023-05-04T15:26:10.777Z,3.70
2023-05-04T15:28:12.569Z,4.60
2023-05-04T15:30:14.479Z,3.90
2023-05-04T15:32:16.031Z,4.30
2023-05-04T15:34:18.606Z,3.90
2023-05-04T15:36:20.360Z,3.33
2023-05-04T15:38:22.085Z,3.70
2023-05-04T15:40:23.902Z,3.55
2023-05-04T15:42:25.602Z,3.30
2023-05-04T15:44:28.068Z,3.25
2023-05-04T15:46:29.716Z,2.90
2023-05-04T15:48:31.356Z,2.85
2023-05-04T15:50:33.414Z,2.95
2023-05-04T15:52:35.084Z,3.33
2023-05-04T15:54:36.753Z,3.22
2023-05-04T15:56:38.372Z,3.13
2023-05-04T15:58:40.011Z,3.35
2023-05-04T16:00:41.673Z,3.20
2023-05-04T16:02:43.326Z,2.80
2023-05-04T16:04:45.053Z,2.60
2023-05-04T16:06:47.829Z,3.05
2023-05-04T16:08:49.574Z,2.70
2023-05-04T16:10:53.432Z,2.50
2023-05-04T16:12:55.312Z,2.50
2023-05-04T16:14:56.960Z,2.80
2023-05-04T16:17:02.094Z,2.47
2023-05-04T16:19:03.765Z,2.40
2023-05-04T16:21:05.372Z,2.90
2023-05-04T16:23:07.095Z,3.15
2023-05-04T16:25:11.025Z,2.88
2023-05-04T16:27:13.032Z,3.78
2023-05-04T16:29:15.450Z,3.45
2023-05-04T16:31:17.121Z,2.80
2023-05-04T16:33:19.717Z,2.78
2023-05-04T16:35:21.651Z,2.85
2023-05-04T16:37:23.255Z,3.05
2023-05-04T16:39:31.494Z,2.80
2023-05-04T16:41:33.387Z,1.98
2023-05-04T16:43:34.984Z,2.13
2023-05-04T16:45:37.145Z,2.53
2023-05-04T16:47:39.324Z,1.90
2023-05-04T16:49:41.174Z,1.98
2023-05-04T16:51:43.497Z,2.58
2023-05-04T16:53:45.105Z,2.80
2023-05-04T16:55:46.943Z,2.50
2023-05-04T16:57:48.600Z,2.65
2023-05-04T16:59:50.237Z,2.85
2023-05-04T17:01:51.984Z,2.60
2023-05-04T17:03:53.856Z,2.22
2023-05-04T17:05:55.612Z,2.70
2023-05-04T17:07:57.217Z,2.58
2023-05-04T17:09:58.949Z,2.72
2023-05-04T17:12:01.127Z,2.20
2023-05-04T17:14:03.583Z,2.30
2023-05-04T17:16:06.251Z,2.30
2023-05-04T17:18:08.171Z,2.00
2023-05-04T17:20:14.939Z,2.55
2023-05-04T17:22:17.491Z,1.90
2023-05-04T17:24:19.330Z,2.85
2023-05-04T17:26:21.227Z,3.47
2023-05-04T17:28:23.066Z,3.42
2023-05-04T17:30:24.754Z,3.95
2023-05-04T17:32:26.741Z,3.60
2023-05-04T17:34:28.476Z,3.58
2023-05-04T17:36:30.112Z,3.60
2023-05-04T17:38:32.611Z,3.90
2023-05-04T17:40:34.565Z,4.78
2023-05-04T17:42:36.173Z,4.00
2023-05-04T17:44:37.753Z,4.68
2023-05-04T17:46:40.260Z,3.83
2023-05-04T17:48:42.090Z,3.90
2023-05-04T17:50:45.522Z,3.60
2023-05-04T17:52:51.787Z,3.45
2023-05-04T17:54:53.850Z,4.03
2023-05-04T17:56:55.438Z,4.03
2023-05-04T17:58:57.016Z,3.10
2023-05-04T18:00:58.635Z,4.43
2023-05-04T18:03:00.242Z,4.20
2023-05-04T18:05:02.508Z,3.50
2023-05-04T18:07:04.149Z,3.80
2023-05-04T18:09:05.762Z,3.63
2023-05-04T18:11:07.323Z,3.40
2023-05-04T18:13:08.928Z,3.78
2023-05-04T18:15:10.672Z,3.65
2023-05-04T18:17:12.269Z,3.58
2023-05-04T18:19:13.889Z,3.65
2023-05-04T18:21:15.528Z,3.47
2023-05-04T18:23:17.075Z,3.60
2023-05-04T18:25:18.663Z,4.22
2023-05-04T18:27:20.306Z,3.65
2023-05-04T18:29:21.880Z,3.70
2023-05-04T18:31:23.525Z,3.72
2023-05-04T18:33:25.131Z,3.85
2023-05-04T18:35:26.961Z,4.13
2023-05-04T18:37:31.728Z,4.55
2023-05-04T18:39:33.312Z,4.10
2023-05-04T18:41:35.080Z,5.35
2023-05-04T18:43:36.710Z,4.70
2023-05-04T18:45:38.340Z,5.40
2023-05-04T18:47:40.027Z,5.55
2023-05-04T18:49:41.994Z,5.38
2023-05-04T18:51:43.624Z,6.00
2023-05-04T18:53:47.007Z,5.97
2023-05-04T18:56:05.806Z,6.90
2023-05-04T18:58:07.447Z,6.88
2023-05-04T19:00:09.821Z,5.60
2023-05-04T19:02:12.650Z,5.63
2023-05-04T19:04:14.259Z,6.03
2023-05-04T19:06:15.886Z,5.57
2023-05-04T19:08:18.890Z,5.90
2023-05-04T19:10:20.477Z,6.88
2023-05-04T19:12:22.173Z,6.68
2023-05-04T19:14:25.342Z,7.35
2023-05-04T19:16:27.265Z,7.65
2023-05-04T19:18:28.902Z,7.45
2023-05-04T19:20:30.499Z,7.60
2023-05-04T19:22:32.097Z,6.93
2023-05-04T19:24:36.241Z,7.28
2023-05-04T19:26:39.066Z,8.48
2023-05-04T19:28:40.672Z,8.02
2023-05-04T19:30:42.439Z,8.35
2023-05-04T19:32:44.096Z,8.77
2023-05-04T19:34:45.775Z,8.15
2023-05-04T19:36:47.386Z,8.27
2023-05-04T19:38:49.042Z,8.00
2023-05-04T19:40:50.851Z,9.40
2023-05-04T19:42:52.573Z,8.25
2023-05-04T19:44:54.187Z,8.95
2023-05-04T19:46:56.142Z,8.82
2023-05-04T19:48:57.948Z,9.32
2023-05-04T19:50:59.607Z,9.20
2023-05-04T19:53:01.179Z,8.85
2023-05-04T19:55:03.166Z,8.75
2023-05-04T19:57:05.087Z,7.85
2023-05-04T19:59:06.728Z,9.27
2023-05-04T20:01:08.564Z,8.95
2023-05-04T20:03:10.539Z,8.23
2023-05-04T20:05:12.789Z,8.65
2023-05-04T20:07:14.404Z,7.68
2023-05-04T20:09:16.148Z,7.75
2023-05-04T20:11:17.877Z,7.50
2023-05-04T20:13:19.616Z,7.57
2023-05-04T20:15:21.652Z,8.80
2023-05-04T20:17:23.570Z,7.85
2023-05-04T20:19:25.150Z,7.07
2023-05-04T20:21:27.186Z,7.22
2023-05-04T20:23:28.811Z,7.72
2023-05-04T20:25:30.422Z,7.13
2023-05-04T20:27:31.995Z,7.35
2023-05-04T20:29:33.901Z,6.85
2023-05-04T20:31:35.787Z,7.03
2023-05-04T20:33:37.495Z,7.40
2023-05-04T20:35:42.025Z,7.22
2023-05-04T20:37:43.607Z,7.85
2023-05-04T20:39:45.421Z,7.05
2023-05-04T20:41:47.770Z,7.30
2023-05-04T20:43:50.213Z,6.80
2023-05-04T20:45:53.445Z,6.55
2023-05-04T20:47:55.131Z,7.18
2023-05-04T20:49:56.781Z,6.65
2023-05-04T20:51:58.352Z,6.63
2023-05-04T20:53:59.997Z,6.35
2023-05-04T20:56:01.985Z,6.50
2023-05-04T20:58:03.560Z,6.70
2023-05-04T21:00:06.702Z,6.25
2023-05-04T21:02:08.847Z,7.22
2023-05-04T21:04:10.623Z,6.40
2023-05-04T21:06:12.352Z,6.63
2023-05-04T21:08:14.056Z,7.03
2023-05-04T21:10:15.681Z,7.15
2023-05-04T21:12:17.479Z,6.97
2023-05-04T21:14:19.037Z,6.72
2023-05-04T21:16:20.706Z,7.30
2023-05-04T21:18:22.644Z,6.80
2023-05-04T21:20:24.251Z,7.38
2023-05-04T21:22:27.364Z,6.38
2023-05-04T21:24:29.054Z,7.40
2023-05-04T21:26:30.685Z,7.10
2023-05-04T21:28:32.507Z,6.60
2023-05-04T21:30:34.124Z,7.28
2023-05-04T21:32:35.844Z,6.60
2023-05-04T21:34:37.453Z,6.68
2023-05-04T21:36:40.353Z,6.80
2023-05-04T21:38:42.185Z,7.23
2023-05-04T21:40:43.714Z,7.30
2023-05-04T21:42:45.315Z,6.57
2023-05-04T21:44:46.882Z,6.90
2023-05-04T21:46:48.541Z,7.40
2023-05-04T21:48:51.721Z,7.82
2023-05-04T21:50:53.319Z,7.47
2023-05-04T21:52:54.902Z,9.23
2023-05-04T21:54:56.507Z,9.23
2023-05-04T21:56:58.139Z,10.15
2023-05-04T21:58:59.734Z,9.52
2023-05-04T22:01:01.360Z,9.00
2023-05-04T22:03:03.019Z,10.68
2023-05-04T22:05:05.145Z,9.88
2023-05-04T22:07:06.701Z,8.48
2023-05-04T22:09:09.028Z,8.88
2023-05-04T22:11:10.735Z,8.07
2023-05-04T22:13:12.352Z,7.10
2023-05-04T22:15:14.218Z,7.43
2023-05-04T22:17:15.864Z,7.93
2023-05-04T22:19:17.510Z,7.50
2023-05-04T22:21:19.091Z,7.93
2023-05-04T22:23:20.714Z,7.20
2023-05-04T22:25:22.322Z,7.82
2023-05-04T22:27:23.889Z,7.05
2023-05-04T22:29:25.564Z,7.15
2023-05-04T22:31:27.306Z,6.70
2023-05-04T22:33:28.979Z,6.75
2023-05-04T22:35:31.719Z,7.38
2023-05-04T22:37:33.302Z,7.10
2023-05-04T22:39:34.884Z,6.93
2023-05-04T22:41:36.890Z,6.68
2023-05-04T22:43:38.497Z,6.18
2023-05-04T22:45:40.833Z,6.53
2023-05-04T22:47:42.478Z,6.72
2023-05-04T22:49:44.182Z,6.72
2023-05-04T22:51:45.830Z,7.65
2023-05-04T22:53:47.443Z,6.90
2023-05-04T22:55:48.999Z,7.00
2023-05-04T22:57:50.689Z,7.15
2023-05-04T22:59:52.273Z,7.30
2023-05-04T23:01:53.893Z,7.43
2023-05-04T23:03:56.057Z,7.30
2023-05-04T23:05:59.978Z,6.72
2023-05-04T23:10:03.545Z,7.05
2023-05-04T23:12:05.369Z,6.97
2023-05-04T23:14:07.211Z,6.68
2023-05-04T23:16:08.851Z,7.13
2023-05-04T23:18:10.466Z,6.65
2023-05-04T23:20:13.376Z,6.60
2023-05-04T23:22:14.994Z,6.60
2023-05-04T23:24:16.542Z,6.90
2023-05-04T23:26:18.363Z,6.38
2023-05-04T23:28:19.998Z,6.55
2023-05-04T23:30:21.665Z,6.63
2023-05-04T23:32:23.464Z,6.45
2023-05-04T23:34:25.084Z,6.38
2023-05-04T23:36:27.672Z,6.57
2023-05-04T23:38:29.313Z,6.43
2023-05-04T23:40:30.857Z,6.85
2023-05-04T23:42:32.662Z,6.45
2023-05-04T23:44:34.317Z,6.82
2023-05-04T23:46:35.922Z,7.03
2023-05-04T23:48:37.484Z,6.82
2023-05-04T23:50:39.119Z,7.18
2023-05-04T23:52:40.721Z,7.03
2023-05-04T23:54:42.309Z,7.18
2023-05-04T23:56:43.976Z,6.93
2023-05-04T23:58:45.618Z,6.90
